Time;durP1;ratioP1;P1;durP2;ratioP2;P2;SDS_P1;SDS_P2;PMS_P1;PMS_P2;Temp;Humidity;BMP_temperature;BMP_pressure;BME280_temperature;BME280_humidity;BME280_pressure;Samples;Min_cycle;Max_cycle;Signal;HPM_P1;HPM_P2
2022/07/07 00:01:29;;;;;;;22.25;13.35;;;15.70;99.90;;;;;;6217259;23;20377;-72
2022/07/07 00:03:55;;;;;;;21.75;12.05;;;15.70;99.90;;;;;;6217412;23;20056;-72
2022/07/07 00:06:21;;;;;;;19.92;11.65;;;15.70;99.90;;;;;;6217387;23;20024;-72
2022/07/07 00:08:47;;;;;;;21.42;12.73;;;15.70;99.90;;;;;;6217358;23;20031;-73
2022/07/07 00:11:17;;;;;;;22.83;12.30;;;15.70;99.90;;;;;;6217308;23;20013;-73
2022/07/07 00:13:45;;;;;;;19.45;11.60;;;15.70;99.90;;;;;;6217281;23;20063;-73
2022/07/07 00:16:10;;;;;;;16.88;11.43;;;15.70;99.90;;;;;;6217238;23;20012;-72
2022/07/07 00:18:36;;;;;;;16.85;10.65;;;15.70;99.90;;;;;;6190215;23;20388;-72
2022/07/07 00:21:02;;;;;;;18.67;10.48;;;15.80;99.90;;;;;;6217040;23;20019;-72
2022/07/07 00:23:28;;;;;;;19.67;10.60;;;15.70;99.90;;;;;;6189756;23;20056;-72
2022/07/07 00:25:53;;;;;;;16.88;11.43;;;15.80;99.90;;;;;;6217287;23;20438;-72
2022/07/07 00:28:19;;;;;;;16.63;10.68;;;15.80;99.90;;;;;;6216795;23;20454;-72
2022/07/07 00:30:45;;;;;;;17.10;10.75;;;15.80;99.90;;;;;;6216782;23;20051;-73
2022/07/07 00:33:10;;;;;;;15.90;10.93;;;15.70;99.90;;;;;;6217205;23;20017;-73
2022/07/07 00:35:36;;;;;;;15.90;10.38;;;15.80;99.90;;;;;;6190203;23;20323;-74
2022/07/07 00:38:02;;;;;;;19.10;9.73;;;15.80;99.90;;;;;;6216767;23;20066;-73
2022/07/07 00:40:28;;;;;;;13.00;8.88;;;15.80;99.90;;;;;;6216950;23;20099;-72
2022/07/07 00:42:54;;;;;;;13.73;8.00;;;15.80;99.90;;;;;;6217087;23;20118;-73
2022/07/07 00:45:20;;;;;;;17.55;8.80;;;15.80;99.90;;;;;;6217071;23;20377;-72
2022/07/07 00:47:47;;;;;;;15.30;8.68;;;15.80;99.90;;;;;;6217052;23;20056;-73
2022/07/07 00:50:13;;;;;;;15.48;8.25;;;15.80;99.90;;;;;;6217045;23;20013;-72
2022/07/07 00:52:38;;;;;;;15.98;9.60;;;15.80;99.90;;;;;;6190485;23;20016;-72
2022/07/07 00:55:08;;;;;;;14.63;9.38;;;15.80;99.90;;;;;;6216855;23;20103;-72
2022/07/07 00:57:34;;;;;;;18.50;9.18;;;15.80;99.90;;;;;;6216909;23;20021;-72
2022/07/07 01:00:01;;;;;;;;;;;16.70;99.90;;;;;;6217269;23;20017;-73
2022/07/07 01:02:31;;;;;;;16.95;8.07;;;15.80;99.90;;;;;;6216922;23;19970;-72
2022/07/07 01:05:01;;;;;;;11.93;8.02;;;15.80;99.90;;;;;;6216803;23;20100;-72
2022/07/07 01:07:27;;;;;;;13.90;8.93;;;15.90;99.90;;;;;;6216784;23;20096;-73
2022/07/07 01:09:55;;;;;;;16.52;8.63;;;15.80;99.90;;;;;;6190251;23;20088;-72
2022/07/07 01:12:20;;;;;;;14.23;9.35;;;15.70;99.90;;;;;;6189871;23;20023;-72
2022/07/07 01:14:46;;;;;;;18.00;9.73;;;15.80;99.90;;;;;;6190202;23;20016;-72
2022/07/07 01:17:12;;;;;;;15.02;8.73;;;15.80;99.90;;;;;;6216585;23;20358;-72
2022/07/07 01:19:37;;;;;;;19.95;9.30;;;15.80;99.90;;;;;;6216698;23;20028;-73
2022/07/07 01:22:10;;;;;;;16.35;8.93;;;15.80;99.90;;;;;;6216574;23;20016;-72
2022/07/07 01:24:36;;;;;;;16.30;9.18;;;15.80;99.90;;;;;;6216632;23;20028;-72
2022/07/07 01:27:18;;;;;;;14.13;9.63;;;15.80;99.90;;;;;;6189991;23;20012;-72
2022/07/07 01:29:45;;;;;;;16.30;8.90;;;15.80;99.90;;;;;;6216526;23;20023;-73
2022/07/07 01:32:11;;;;;;;12.98;8.27;;;15.80;99.90;;;;;;6189928;23;20434;-73
2022/07/07 01:34:37;;;;;;;;;;;15.80;99.90;;;;;;6216454;23;20016;-73
2022/07/07 01:37:04;;;;;;;12.90;7.03;;;15.80;99.90;;;;;;6216597;23;20241;-72
2022/07/07 01:39:31;;;;;;;13.98;8.15;;;15.80;99.90;;;;;;6215983;23;20032;-72
2022/07/07 01:41:57;;;;;;;14.65;8.65;;;15.80;99.90;;;;;;6216191;23;20310;-72
2022/07/07 01:44:23;;;;;;;12.05;7.50;;;15.80;99.90;;;;;;6216569;23;20020;-72
2022/07/07 01:46:49;;;;;;;11.77;7.82;;;15.80;99.90;;;;;;6216404;23;20071;-73
2022/07/07 01:49:15;;;;;;;;;;;15.70;99.90;;;;;;6190162;23;20017;-72
2022/07/07 01:51:41;;;;;;;12.02;4.60;;;15.70;99.90;;;;;;6216439;23;19923;-73
2022/07/07 01:54:07;;;;;;;10.13;4.88;;;15.70;99.90;;;;;;6216226;23;20113;-73
2022/07/07 01:56:33;;;;;;;8.77;5.70;;;15.70;99.90;;;;;;6189535;23;20021;-72
2022/07/07 01:58:59;;;;;;;11.65;5.43;;;15.70;99.90;;;;;;6216328;23;20021;-72
2022/07/07 02:01:24;;;;;;;10.68;4.75;;;15.70;99.90;;;;;;6216243;23;20500;-73
2022/07/07 02:03:50;;;;;;;10.07;4.55;;;15.60;99.90;;;;;;6216714;23;20021;-73
2022/07/07 02:06:16;;;;;;;7.85;4.45;;;15.60;99.90;;;;;;6216339;23;20020;-72
2022/07/07 02:08:41;;;;;;;12.35;4.45;;;15.60;99.90;;;;;;6216370;23;20017;-72
2022/07/07 02:11:16;;;;;;;7.30;3.17;;;15.60;99.90;;;;;;6216220;23;20058;-72
2022/07/07 02:13:47;;;;;;;6.28;2.63;;;15.60;99.90;;;;;;6216198;23;20028;-73
2022/07/07 02:16:14;;;;;;;13.35;3.05;;;15.60;99.90;;;;;;6216121;23;20091;-72
2022/07/07 02:18:42;;;;;;;6.65;3.25;;;15.60;99.90;;;;;;6216123;23;20031;-73
2022/07/07 02:21:10;;;;;;;6.05;3.22;;;15.50;99.90;;;;;;6216069;23;20096;-72
2022/07/07 02:23:38;;;;;;;5.55;3.10;;;15.50;99.90;;;;;;6164893;23;20020;-72
2022/07/07 02:26:04;;;;;;;4.53;2.35;;;15.50;99.90;;;;;;6216087;23;20023;-72
2022/07/07 02:28:30;;;;;;;5.60;2.17;;;15.50;99.90;;;;;;6216150;23;20029;-72
2022/07/07 02:30:57;;;;;;;5.15;2.35;;;15.50;99.90;;;;;;6215952;23;20019;-72
2022/07/07 02:33:24;;;;;;;4.90;2.65;;;15.50;99.90;;;;;;6216079;23;20028;-73
2022/07/07 02:35:50;;;;;;;6.07;2.38;;;15.50;99.90;;;;;;6189534;23;20016;-72
2022/07/07 02:38:16;;;;;;;7.97;2.50;;;15.50;99.90;;;;;;6215746;23;20450;-72
2022/07/07 02:40:42;;;;;;;;;;;15.50;99.90;;;;;;6216805;23;20023;-72
2022/07/07 02:43:12;;;;;;;5.05;2.67;;;15.50;99.90;;;;;;6215454;23;19916;-72
2022/07/07 02:45:48;;;;;;;7.60;3.45;;;15.50;99.90;;;;;;6215899;23;20446;-72
2022/07/07 02:48:20;;;;;;;6.00;3.28;;;15.50;99.90;;;;;;6215903;23;20066;-73
2022/07/07 02:50:46;;;;;;;7.25;3.40;;;15.50;99.90;;;;;;6215919;23;20063;-73
2022/07/07 02:53:12;;;;;;;;;;;15.50;99.90;;;;;;6216474;23;20023;-72
2022/07/07 02:55:39;;;;;;;6.15;3.42;;;15.50;99.90;;;;;;6215565;23;20356;-73
2022/07/07 02:58:06;;;;;;;5.47;3.60;;;15.50;99.90;;;;;;6189110;23;20524;-72
2022/07/07 03:00:35;;;;;;;7.28;3.95;;;15.50;99.90;;;;;;6189240;23;20333;-72
2022/07/07 03:03:05;;;;;;;6.30;3.85;;;15.50;99.90;;;;;;6215897;23;20021;-72
2022/07/07 03:05:32;;;;;;;8.65;4.45;;;15.50;99.90;;;;;;6215791;23;20023;-73
2022/07/07 03:07:58;;;;;;;8.90;3.80;;;15.50;99.90;;;;;;6215743;23;20032;-73
2022/07/07 03:10:24;;;;;;;7.93;4.30;;;15.50;99.90;;;;;;6215806;23;20456;-73
2022/07/07 03:12:50;;;;;;;8.32;3.92;;;15.50;99.90;;;;;;6215834;23;20036;-73
2022/07/07 03:15:16;;;;;;;8.93;4.13;;;15.50;99.90;;;;;;6215971;23;20016;-73
2022/07/07 03:17:43;;;;;;;5.60;3.53;;;15.50;99.90;;;;;;6215950;23;20017;-73
2022/07/07 03:20:10;;;;;;;7.85;3.80;;;15.50;99.90;;;;;;6215603;23;20017;-72
2022/07/07 03:22:37;;;;;;;8.18;4.07;;;15.50;99.90;;;;;;6188949;23;20462;-73
2022/07/07 03:25:04;;;;;;;6.32;3.55;;;15.50;99.90;;;;;;6188170;23;20095;-72
2022/07/07 03:27:29;;;;;;;11.82;4.22;;;15.50;99.90;;;;;;6215675;23;20034;-72
2022/07/07 03:29:55;;;;;;;7.53;4.22;;;15.50;99.90;;;;;;6215754;23;20099;-73
2022/07/07 03:32:21;;;;;;;7.43;3.88;;;15.50;99.90;;;;;;6215699;23;20023;-73
2022/07/07 03:34:46;;;;;;;8.93;4.43;;;15.50;99.90;;;;;;6189302;23;20024;-73
2022/07/07 03:37:12;;;;;;;7.95;4.20;;;15.40;99.90;;;;;;6215736;23;20136;-72
2022/07/07 03:39:38;;;;;;;14.15;5.70;;;15.50;99.90;;;;;;6215805;23;20438;-72
2022/07/07 03:42:04;;;;;;;8.32;5.97;;;15.40;99.90;;;;;;6215566;23;20334;-72
2022/07/07 03:44:29;;;;;;;10.93;5.80;;;15.40;99.90;;;;;;6215744;23;20079;-73
2022/07/07 03:46:55;;;;;;;9.77;5.20;;;15.50;99.90;;;;;;6215637;23;20017;-73
2022/07/07 03:49:20;;;;;;;9.57;5.60;;;15.40;99.90;;;;;;6215642;23;20063;-73
2022/07/07 03:51:46;;;;;;;9.75;4.35;;;15.40;99.90;;;;;;6215601;23;20019;-73
2022/07/07 03:54:12;;;;;;;12.45;4.00;;;15.40;99.90;;;;;;6215599;23;20071;-73
2022/07/07 03:56:41;;;;;;;;;;;15.50;99.90;;;;;;6216749;23;20078;-73
2022/07/07 03:59:07;;;;;;;8.02;3.83;;;15.40;99.90;;;;;;6217493;23;19922;-72
2022/07/07 04:01:32;;;;;;;12.27;4.75;;;15.40;99.90;;;;;;6217344;23;20013;-73
2022/07/07 04:03:58;;;;;;;12.27;3.72;;;15.40;99.90;;;;;;6217500;23;20067;-73
2022/07/07 04:06:24;;;;;;;10.05;4.40;;;15.40;99.90;;;;;;6190834;23;20016;-73
2022/07/07 04:08:49;;;;;;;5.25;2.55;;;15.40;99.90;;;;;;6190952;23;20366;-73
2022/07/07 04:11:16;;;;;;;3.13;1.65;;;15.60;99.90;;;;;;6190895;23;20016;-73
2022/07/07 04:13:42;;;;;;;5.22;1.50;;;15.40;99.90;;;;;;6217286;23;20336;-73
2022/07/07 04:16:08;;;;;;;5.20;1.00;;;15.30;99.90;;;;;;6217314;23;20024;-73
2022/07/07 04:18:34;;;;;;;7.80;1.60;;;15.30;99.90;;;;;;6217277;23;20016;-72
2022/07/07 04:20:59;;;;;;;5.05;1.00;;;15.40;99.90;;;;;;6190622;23;20116;-73
2022/07/07 04:23:25;;;;;;;7.75;1.77;;;15.20;99.90;;;;;;6217263;23;20017;-73
2022/07/07 04:25:50;;;;;;;6.20;1.48;;;15.20;99.90;;;;;;6217260;23;20063;-72
2022/07/07 04:28:16;;;;;;;2.85;0.88;;;15.20;99.90;;;;;;6217239;23;20023;-72
2022/07/07 04:30:42;;;;;;;7.22;1.27;;;15.20;99.90;;;;;;6217128;23;20461;-72
2022/07/07 04:33:08;;;;;;;3.90;0.85;;;15.10;99.90;;;;;;6217167;23;20024;-72
2022/07/07 04:35:33;;;;;;;8.95;1.13;;;15.20;99.90;;;;;;6216880;23;20031;-73
2022/07/07 04:37:59;;;;;;;6.22;0.98;;;15.20;99.90;;;;;;6216544;23;20016;-72
2022/07/07 04:40:25;;;;;;;3.42;1.10;;;15.30;99.90;;;;;;6217060;23;20016;-72
2022/07/07 04:42:52;;;;;;;6.00;1.20;;;15.30;99.90;;;;;;6216931;23;20012;-73
2022/07/07 04:45:18;;;;;;;3.72;0.68;;;15.10;99.90;;;;;;6216390;23;20043;-72
2022/07/07 04:47:44;;;;;;;3.15;0.77;;;15.10;99.90;;;;;;6217418;23;20028;-72
2022/07/07 04:50:11;;;;;;;3.20;0.80;;;15.10;99.90;;;;;;6217062;23;20017;-73
2022/07/07 04:52:38;;;;;;;8.82;2.28;;;15.10;99.90;;;;;;6217028;23;20017;-73
2022/07/07 04:55:04;;;;;;;6.05;0.80;;;15.10;99.90;;;;;;6216990;23;20027;-72
2022/07/07 04:57:30;;;;;;;1.52;0.75;;;15.00;99.90;;;;;;6190481;23;20021;-72
2022/07/07 04:59:57;;;;;;;4.18;0.80;;;15.00;99.90;;;;;;6190356;23;20095;-73
2022/07/07 05:02:22;;;;;;;9.23;1.77;;;15.00;99.90;;;;;;6189905;23;20043;-72
2022/07/07 05:04:51;;;;;;;5.75;0.90;;;15.00;99.90;;;;;;6216894;23;20017;-73
2022/07/07 05:07:18;;;;;;;6.00;1.20;;;14.90;99.90;;;;;;6216708;23;20016;-73
2022/07/07 05:09:43;;;;;;;4.63;1.00;;;15.00;99.90;;;;;;6216393;23;20095;-72
2022/07/07 05:12:09;;;;;;;7.47;1.20;;;14.90;99.90;;;;;;6190371;23;20048;-72
2022/07/07 05:14:35;;;;;;;9.32;1.13;;;14.90;99.90;;;;;;6216899;23;20013;-72
2022/07/07 05:17:01;;;;;;;5.57;1.00;;;14.90;99.90;;;;;;6216771;23;20023;-73
2022/07/07 05:19:27;;;;;;;4.50;0.90;;;14.90;99.90;;;;;;6216727;23;20021;-72
2022/07/07 05:21:53;;;;;;;3.60;0.70;;;15.80;99.90;;;;;;6216548;23;20413;-72
2022/07/07 05:24:20;;;;;;;3.05;0.90;;;14.90;99.90;;;;;;6216636;23;20021;-73
2022/07/07 05:26:46;;;;;;;6.13;1.52;;;14.80;99.90;;;;;;6216790;23;20024;-73
2022/07/07 05:29:12;;;;;;;4.13;1.10;;;14.70;99.90;;;;;;6216665;23;20023;-72
2022/07/07 05:31:37;;;;;;;4.97;1.40;;;14.70;99.90;;;;;;6216195;23;20024;-72
2022/07/07 05:34:03;;;;;;;9.45;1.30;;;14.70;99.90;;;;;;6216688;23;20148;-72
2022/07/07 05:36:29;;;;;;;10.75;1.75;;;14.70;99.90;;;;;;6216709;23;20017;-73
2022/07/07 05:38:55;;;;;;;7.97;1.30;;;14.60;99.90;;;;;;6216403;23;20016;-73
2022/07/07 05:41:21;;;;;;;9.32;1.75;;;14.60;99.90;;;;;;6189833;23;20044;-73
2022/07/07 05:43:48;;;;;;;14.05;2.17;;;14.90;99.90;;;;;;6216575;23;20027;-72
2022/07/07 05:46:14;;;;;;;10.13;1.75;;;14.60;99.90;;;;;;6189859;23;20086;-74
2022/07/07 05:48:39;;;;;;;;;;;14.60;99.90;;;;;;6217039;23;20095;-72
2022/07/07 05:51:05;;;;;;;11.23;2.40;;;14.70;99.90;;;;;;6216329;23;19954;-73
2022/07/07 05:53:31;;;;;;;5.30;1.50;;;14.50;99.90;;;;;;6216401;23;20017;-72
2022/07/07 05:55:57;;;;;;;10.77;2.28;;;14.60;99.90;;;;;;6216767;23;20306;-72
2022/07/07 05:58:23;;;;;;;10.82;2.20;;;14.50;99.90;;;;;;6189790;23;20458;-72
2022/07/07 06:00:49;;;;;;;8.65;2.13;;;14.50;99.90;;;;;;6216151;23;20016;-73
2022/07/07 06:03:15;;;;;;;7.65;2.20;;;14.50;99.90;;;;;;6189796;23;20055;-72
2022/07/07 06:05:41;;;;;;;10.25;2.15;;;14.50;99.90;;;;;;6216272;23;20016;-72
2022/07/07 06:08:08;;;;;;;10.73;2.38;;;14.50;99.90;;;;;;6216277;23;20023;-72
2022/07/07 06:10:34;;;;;;;;;;;14.60;99.90;;;;;;6216746;23;20496;-73
2022/07/07 06:13:00;;;;;;;10.02;2.13;;;14.60;99.90;;;;;;6215992;23;19983;-73
2022/07/07 06:15:26;;;;;;;9.85;2.83;;;14.50;99.90;;;;;;6189864;23;20353;-72
2022/07/07 06:17:52;;;;;;;12.30;2.50;;;14.60;99.90;;;;;;6216157;23;20017;-72
2022/07/07 06:20:17;;;;;;;8.00;1.90;;;14.60;99.90;;;;;;6189046;23;20324;-73
2022/07/07 06:22:43;;;;;;;9.07;2.20;;;14.70;99.90;;;;;;6216224;23;20028;-73
2022/07/07 06:25:09;;;;;;;12.80;2.40;;;14.70;99.90;;;;;;6216164;23;20017;-72
2022/07/07 06:27:38;;;;;;;11.43;2.80;;;14.70;99.90;;;;;;6216180;23;20055;-73
2022/07/07 06:30:04;;;;;;;28.60;5.30;;;14.70;99.90;;;;;;6214758;23;20012;-72
2022/07/07 06:32:30;;;;;;;10.77;2.35;;;14.60;99.90;;;;;;6215945;23;20021;-72
2022/07/07 06:34:56;;;;;;;10.60;2.03;;;14.60;99.90;;;;;;6215613;23;20094;-73
2022/07/07 06:37:23;;;;;;;8.80;1.95;;;14.60;99.90;;;;;;6189348;23;20438;-72
2022/07/07 06:39:49;;;;;;;9.68;2.17;;;14.60;99.90;;;;;;6215338;23;20035;-73
2022/07/07 06:42:15;;;;;;;11.60;2.17;;;14.60;99.90;;;;;;6215716;23;20081;-72
2022/07/07 06:44:41;;;;;;;6.05;3.03;;;14.70;99.90;;;;;;6189479;23;20021;-72
2022/07/07 06:47:07;;;;;;;8.68;2.67;;;14.60;99.90;;;;;;6189061;23;20013;-72
2022/07/07 06:49:33;;;;;;;11.63;1.85;;;14.60;99.90;;;;;;6215929;23;20023;-73
2022/07/07 06:51:59;;;;;;;11.40;2.53;;;14.60;99.90;;;;;;6215825;23;20397;-74
2022/07/07 06:54:25;;;;;;;6.15;1.63;;;14.60;99.90;;;;;;6164477;23;20028;-73
2022/07/07 06:56:51;;;;;;;4.45;1.60;;;14.60;99.90;;;;;;6215859;23;20052;-72
2022/07/07 06:59:16;;;;;;;10.07;2.20;;;14.70;99.90;;;;;;6215753;23;20016;-72
2022/07/07 07:01:44;;;;;;;8.82;2.70;;;14.70;99.90;;;;;;6215608;23;20088;-72
2022/07/07 07:04:09;;;;;;;14.18;2.08;;;14.70;99.90;;;;;;6215758;23;20063;-72
2022/07/07 07:06:36;;;;;;;13.02;2.40;;;14.70;99.90;;;;;;6215945;23;20016;-72
2022/07/07 07:09:02;;;;;;;;;;;14.80;99.90;;;;;;6216303;23;20095;-73
2022/07/07 07:11:28;;;;;;;10.63;2.53;;;14.80;99.90;;;;;;6189281;23;19920;-72
2022/07/07 07:13:56;;;;;;;;;;;14.80;99.90;;;;;;6216183;23;20023;-74
2022/07/07 07:16:21;;;;;;;7.97;2.05;;;14.90;99.90;;;;;;6215359;23;20309;-72
2022/07/07 07:18:47;;;;;;;7.65;2.53;;;14.90;99.90;;;;;;6188964;23;20052;-72
2022/07/07 07:21:13;;;;;;;6.13;1.48;;;15.00;99.90;;;;;;6189237;23;20019;-72
2022/07/07 07:23:39;;;;;;;7.50;2.00;;;15.00;99.90;;;;;;6215715;23;20028;-72
2022/07/07 07:26:06;;;;;;;6.90;2.05;;;15.00;99.90;;;;;;6188987;23;20020;-72
2022/07/07 07:28:33;;;;;;;6.55;1.73;;;15.00;99.90;;;;;;6215554;23;20091;-73
2022/07/07 07:30:58;;;;;;;9.48;2.20;;;15.00;99.90;;;;;;6215602;23;20016;-72
2022/07/07 07:33:24;;;;;;;7.93;1.88;;;15.10;99.90;;;;;;6191204;23;20012;-73
2022/07/07 07:35:50;;;;;;;6.00;1.50;;;15.10;99.90;;;;;;6217644;23;20031;-71
2022/07/07 07:38:15;;;;;;;3.45;1.35;;;15.10;99.90;;;;;;6217272;23;20071;-72
2022/07/07 07:40:41;;;;;;;6.43;1.73;;;15.10;99.90;;;;;;6217442;23;20100;-72
2022/07/07 07:43:07;;;;;;;4.88;1.40;;;15.10;99.90;;;;;;6217444;23;20028;-73
2022/07/07 07:45:33;;;;;;;10.95;1.88;;;15.10;99.90;;;;;;6217517;23;20383;-73
2022/07/07 07:48:01;;;;;;;8.75;1.52;;;15.10;99.90;;;;;;6217146;23;20327;-72
2022/07/07 07:50:28;;;;;;;9.80;1.40;;;15.10;99.90;;;;;;6217190;23;20385;-72
2022/07/07 07:52:53;;;;;;;6.65;1.20;;;15.10;99.90;;;;;;6217567;23;20017;-72
2022/07/07 07:55:21;;;;;;;6.50;1.52;;;15.10;99.90;;;;;;6217374;23;20389;-73
2022/07/07 07:57:47;;;;;;;7.38;1.40;;;15.20;99.90;;;;;;6217526;23;20086;-72
2022/07/07 08:00:14;;;;;;;;;;;15.20;99.90;;;;;;6217700;23;20023;-72
2022/07/07 08:02:40;;;;;;;4.78;2.45;;;15.30;99.90;;;;;;6217354;23;19916;-72
2022/07/07 08:05:06;;;;;;;7.18;1.17;;;15.40;99.90;;;;;;6217358;23;20017;-73
2022/07/07 08:07:32;;;;;;;4.60;1.13;;;15.40;99.90;;;;;;6190462;23;20012;-73
2022/07/07 08:09:59;;;;;;;5.78;1.35;;;15.50;99.90;;;;;;6217311;23;20078;-73
2022/07/07 08:12:25;;;;;;;6.22;0.73;;;15.50;99.90;;;;;;6217161;23;20009;-73
2022/07/07 08:14:51;;;;;;;7.22;0.95;;;15.70;99.90;;;;;;6217557;23;20430;-71
2022/07/07 08:17:17;;;;;;;5.80;1.30;;;15.70;99.90;;;;;;6217251;23;20017;-73
2022/07/07 08:19:43;;;;;;;4.22;0.85;;;15.80;99.90;;;;;;6217280;23;20012;-72
2022/07/07 08:22:09;;;;;;;3.47;0.88;;;15.80;99.90;;;;;;6190267;23;20430;-72
2022/07/07 08:24:35;;;;;;;;;;;15.70;99.90;;;;;;6191081;23;20373;-72
2022/07/07 08:27:00;;;;;;;7.60;1.00;;;15.70;99.90;;;;;;6217113;23;19962;-72
2022/07/07 08:29:26;;;;;;;2.40;0.75;;;15.70;99.90;;;;;;6190057;23;20079;-73
2022/07/07 08:31:51;;;;;;;4.50;0.75;;;15.60;99.90;;;;;;6190535;23;20017;-73
2022/07/07 08:34:17;;;;;;;2.53;0.60;;;15.60;99.90;;;;;;6217238;23;20402;-72
2022/07/07 08:36:43;;;;;;;5.95;1.00;;;15.60;99.90;;;;;;6216797;23;20460;-72
2022/07/07 08:39:08;;;;;;;2.90;0.82;;;15.70;99.90;;;;;;6217175;23;20020;-73
2022/07/07 08:41:35;;;;;;;3.10;0.68;;;15.70;99.90;;;;;;6216862;23;20385;-72
2022/07/07 08:44:02;;;;;;;5.70;0.77;;;15.80;99.90;;;;;;6216928;23;20028;-72
2022/07/07 08:46:28;;;;;;;1.52;0.88;;;15.90;99.90;;;;;;6216502;23;20468;-73
2022/07/07 08:48:54;;;;;;;1.23;0.50;;;16.00;99.90;;;;;;6165088;23;20020;-73
2022/07/07 08:51:21;;;;;;;0.90;0.47;;;16.00;99.90;;;;;;6217022;23;20319;-72
2022/07/07 08:53:47;;;;;;;4.30;0.47;;;16.10;99.90;;;;;;6217027;23;20016;-72
2022/07/07 08:56:16;;;;;;;5.72;0.95;;;16.10;99.90;;;;;;6190357;23;20024;-72
2022/07/07 08:58:43;;;;;;;3.00;0.70;;;16.10;99.90;;;;;;6190306;23;20461;-72
2022/07/07 09:01:09;;;;;;;2.22;0.50;;;16.00;99.90;;;;;;6190229;23;20055;-71
2022/07/07 09:03:35;;;;;;;2.10;0.52;;;16.00;99.90;;;;;;6189836;23;20016;-72
2022/07/07 09:06:01;;;;;;;4.55;0.55;;;15.80;99.90;;;;;;6216793;23;20016;-72
2022/07/07 09:08:29;;;;;;;;;;;15.80;99.90;;;;;;6216342;23;20025;-72
2022/07/07 09:10:57;;;;;;;4.47;0.60;;;15.80;99.90;;;;;;6216325;23;20007;-73
2022/07/07 09:13:26;;;;;;;5.82;1.15;;;15.80;99.90;;;;;;6215873;23;20016;-72
2022/07/07 09:16:01;;;;;;;3.10;0.63;;;15.80;99.90;;;;;;6216391;23;20025;-73
2022/07/07 09:18:35;;;;;;;5.90;0.85;;;15.90;99.90;;;;;;6189422;23;20476;-72
2022/07/07 09:21:05;;;;;;;3.80;0.63;;;16.00;99.90;;;;;;6216279;23;20337;-72
2022/07/07 09:23:31;;;;;;;3.30;0.80;;;16.00;99.90;;;;;;6215843;23;20017;-71
2022/07/07 09:25:58;;;;;;;;;;;16.10;99.90;;;;;;6216384;23;20027;-73
2022/07/07 09:28:26;;;;;;;3.33;1.13;;;16.10;99.90;;;;;;6216366;23;19915;-73
2022/07/07 09:30:54;;;;;;;1.95;0.80;;;16.20;99.90;;;;;;6215860;23;20341;-72
2022/07/07 09:33:26;;;;;;;6.18;0.93;;;16.20;99.90;;;;;;6216361;23;20056;-72
2022/07/07 09:38:42;;;;;;;3.33;1.67;;;16.20;99.90;;;;;;6215763;23;20024;-72
2022/07/07 09:41:13;;;;;;;6.63;0.90;;;16.10;99.90;;;;;;6215672;23;20016;-72
2022/07/07 09:43:48;;;;;;;2.10;0.70;;;16.00;99.90;;;;;;6216000;23;20099;-72
2022/07/07 09:46:22;;;;;;;6.25;0.80;;;16.00;99.90;;;;;;6216061;23;20048;-72
2022/07/07 09:48:49;;;;;;;3.50;0.80;;;15.90;99.90;;;;;;6215519;23;20059;-72
2022/07/07 09:51:31;;;;;;;6.38;1.73;;;15.90;99.90;;;;;;6216004;23;20024;-72
2022/07/07 09:54:03;;;;;;;1.73;0.70;;;15.90;99.90;;;;;;6189127;23;20017;-72
2022/07/07 09:56:37;;;;;;;4.68;0.80;;;16.00;99.90;;;;;;6189479;23;20323;-72
2022/07/07 09:59:12;;;;;;;5.30;0.88;;;16.00;99.90;;;;;;6215921;23;20021;-72
2022/07/07 10:01:42;;;;;;;3.25;0.90;;;15.90;99.90;;;;;;6215439;23;20020;-73
2022/07/07 10:04:11;;;;;;;4.22;0.93;;;15.90;99.90;;;;;;6189437;23;20023;-72
2022/07/07 10:06:40;;;;;;;3.33;0.88;;;15.90;99.90;;;;;;6189598;23;20504;-72
2022/07/07 10:09:09;;;;;;;4.50;1.75;;;15.90;99.90;;;;;;6215649;23;20016;-72
2022/07/07 10:11:36;;;;;;;4.63;1.05;;;16.00;99.90;;;;;;6189016;23;20020;-72
2022/07/07 10:14:11;;;;;;;7.80;2.17;;;16.10;99.90;;;;;;6216157;23;20480;-73
2022/07/07 10:16:39;;;;;;;4.20;0.90;;;16.10;99.90;;;;;;6189241;23;20445;-71
2022/07/07 10:19:11;;;;;;;3.67;1.15;;;16.10;99.90;;;;;;6215849;23;20017;-73
2022/07/07 10:21:41;;;;;;;5.75;1.00;;;16.00;99.90;;;;;;6189186;23;20393;-72
2022/07/07 10:24:08;;;;;;;4.15;1.40;;;16.00;99.90;;;;;;6215721;23;20024;-72
2022/07/07 10:26:38;;;;;;;8.10;1.58;;;15.90;99.90;;;;;;6188183;23;20021;-72
2022/07/07 10:29:06;;;;;;;4.05;1.35;;;15.90;99.90;;;;;;6215264;23;20027;-71
2022/07/07 10:31:32;;;;;;;5.45;1.05;;;15.90;99.90;;;;;;6215649;23;20017;-72
2022/07/07 10:33:59;;;;;;;10.38;1.70;;;16.00;99.90;;;;;;6215790;23;20021;-72
2022/07/07 10:36:25;;;;;;;4.28;0.70;;;16.00;99.90;;;;;;6215672;23;20328;-72
2022/07/07 10:38:52;;;;;;;;;;;15.90;99.90;;;;;;6215547;23;20146;-74
2022/07/07 10:41:24;;;;;;;7.28;1.10;;;15.90;99.90;;;;;;6215651;23;19923;-73
2022/07/07 10:44:06;;;;;;;14.75;3.28;;;15.80;99.90;;;;;;6215390;23;20373;-73
2022/07/07 10:46:35;;;;;;;5.10;1.48;;;15.70;99.90;;;;;;6215096;23;20017;-74
2022/07/07 10:49:13;;;;;;;10.63;1.33;;;15.60;99.90;;;;;;6215811;23;20012;-73
2022/07/07 10:51:54;;;;;;;5.68;1.70;;;15.50;99.90;;;;;;6215709;23;20013;-74
2022/07/07 10:54:42;;;;;;;6.28;1.42;;;15.40;99.90;;;;;;6215701;23;20020;-73
2022/07/07 10:57:13;;;;;;;4.93;1.30;;;15.50;99.90;;;;;;6215555;23;20052;-74
2022/07/07 10:59:58;;;;;;;10.63;1.92;;;15.50;99.90;;;;;;6215494;23;20032;-72
2022/07/07 11:02:32;;;;;;;7.88;1.75;;;15.50;99.90;;;;;;6188896;23;20051;-72
2022/07/07 11:04:59;;;;;;;5.00;1.30;;;15.50;99.90;;;;;;6215584;23;20043;-73
2022/07/07 11:07:26;;;;;;;9.50;1.70;;;15.50;99.90;;;;;;6190244;23;20013;-73
2022/07/07 11:10:08;;;;;;;10.30;2.22;;;15.50;99.90;;;;;;6215988;23;20100;-73
2022/07/07 11:12:43;;;;;;;9.25;2.22;;;15.40;99.90;;;;;;6165990;23;20099;-72
2022/07/07 11:15:17;;;;;;;10.30;2.33;;;15.40;99.90;;;;;;6190335;23;20468;-72
2022/07/07 11:17:53;;;;;;;11.27;2.92;;;15.30;99.90;;;;;;6216817;23;20523;-71
2022/07/07 11:20:21;;;;;;;10.40;2.78;;;15.20;99.90;;;;;;6190909;23;20064;-70
2022/07/07 11:22:52;;;;;;;13.38;2.83;;;15.10;99.90;;;;;;6217537;23;20013;-72
2022/07/07 11:25:23;;;;;;;7.45;2.80;;;15.00;99.90;;;;;;6217527;23;20039;-70
2022/07/07 11:27:51;;;;;;;8.30;1.73;;;15.00;99.90;;;;;;6217600;23;20327;-71
2022/07/07 11:30:23;;;;;;;4.93;2.58;;;15.00;99.90;;;;;;6217410;23;20020;-71
2022/07/07 11:32:49;;;;;;;7.30;1.40;;;15.00;99.90;;;;;;6190952;23;20079;-71
2022/07/07 11:35:15;;;;;;;8.38;1.55;;;15.00;99.90;;;;;;6217022;23;20052;-71
2022/07/07 11:37:45;;;;;;;5.28;1.33;;;15.10;99.90;;;;;;6217042;23;20020;-70
2022/07/07 11:40:24;;;;;;;6.72;1.58;;;15.10;99.90;;;;;;6216844;23;20020;-71
2022/07/07 11:42:51;;;;;;;8.93;1.77;;;15.10;99.90;;;;;;6217226;23;20020;-71
2022/07/07 11:45:26;;;;;;;10.98;1.80;;;15.20;99.90;;;;;;6164983;23;20095;-71
2022/07/07 11:47:59;;;;;;;7.40;1.45;;;15.20;99.90;;;;;;6166065;23;20016;-71
2022/07/07 11:50:28;;;;;;;5.20;1.40;;;15.20;99.90;;;;;;6190788;23;20346;-70
2022/07/07 11:52:58;;;;;;;10.70;1.48;;;15.30;99.90;;;;;;6217689;23;20021;-70
2022/07/07 11:55:25;;;;;;;11.35;2.00;;;15.30;99.90;;;;;;6217389;23;20095;-70
2022/07/07 11:58:00;;;;;;;7.20;1.95;;;15.40;99.90;;;;;;6217463;23;20052;-71
2022/07/07 12:00:29;;;;;;;8.80;1.35;;;15.40;99.90;;;;;;6217230;23;20052;-71
2022/07/07 12:02:57;;;;;;;3.35;1.20;;;15.40;99.90;;;;;;6190399;23;20016;-71
2022/07/07 12:05:28;;;;;;;8.35;1.65;;;15.40;99.90;;;;;;6190278;23;20017;-71
2022/07/07 12:08:00;;;;;;;10.25;1.80;;;15.30;99.90;;;;;;6217049;23;20052;-70
2022/07/07 12:10:31;;;;;;;19.75;2.35;;;15.30;99.90;;;;;;6217186;23;20059;-70
2022/07/07 12:13:00;;;;;;;11.40;1.70;;;15.40;99.90;;;;;;6217138;23;20095;-70
2022/07/07 12:15:34;;;;;;;6.60;1.90;;;15.40;99.90;;;;;;6217086;23;20092;-70
2022/07/07 12:18:02;;;;;;;5.60;1.42;;;15.40;99.90;;;;;;6216569;23;20450;-70
2022/07/07 12:20:28;;;;;;;6.22;1.88;;;15.30;99.90;;;;;;6216987;23;20027;-70
2022/07/07 12:22:57;;;;;;;7.90;1.90;;;15.40;99.90;;;;;;6216999;23;20472;-71
2022/07/07 12:25:26;;;;;;;14.15;4.85;;;15.40;99.90;;;;;;6217050;23;20016;-70
2022/07/07 12:28:01;;;;;;;8.60;1.98;;;15.40;99.90;;;;;;6216938;23;20147;-70
2022/07/07 12:30:32;;;;;;;6.25;1.83;;;15.40;99.90;;;;;;6216867;23;20020;-71
2022/07/07 12:33:00;;;;;;;13.13;2.50;;;15.40;99.90;;;;;;6216836;23;20099;-70
2022/07/07 12:35:39;;;;;;;9.57;1.52;;;15.40;99.90;;;;;;6216441;23;20465;-70
2022/07/07 12:38:07;;;;;;;7.20;1.83;;;15.40;99.90;;;;;;6189613;23;20454;-70
2022/07/07 12:40:36;;;;;;;8.23;1.55;;;15.40;99.90;;;;;;6189914;23;20021;-70
2022/07/07 12:43:08;;;;;;;9.02;1.55;;;15.40;99.90;;;;;;6216439;23;20059;-70
2022/07/07 12:45:34;;;;;;;8.00;1.80;;;15.40;99.90;;;;;;6190084;23;20021;-71
2022/07/07 12:48:00;;;;;;;9.75;2.25;;;15.50;99.90;;;;;;6190166;23;20103;-71
2022/07/07 12:50:27;;;;;;;8.93;1.98;;;15.50;99.90;;;;;;6216870;23;20012;-71
2022/07/07 12:53:03;;;;;;;7.15;1.45;;;15.50;99.90;;;;;;6190295;23;20030;-71